Time;durP1;ratioP1;P1;durP2;ratioP2;P2;SDS_P1;SDS_P2;PMS_P1;PMS_P2;Temp;Humidity;BMP_temperature;BMP_pressure;BME280_temperature;BME280_humidity;BME280_pressure;Samples;Min_cycle;Max_cycle;Signal;HPM_P1;HPM_P2
2021/06/09 00:00:48;;;;;;;8.67;7.87;;;19.40;99.90;;;;;;5113264;28;20573;-69
2021/06/09 00:03:13;;;;;;;10.17;8.07;;;19.30;99.90;;;;;;5116042;28;20407;-68
2021/06/09 00:05:39;;;;;;;10.03;8.40;;;19.20;99.90;;;;;;5117327;28;20439;-68
2021/06/09 00:08:05;;;;;;;8.83;8.03;;;19.00;99.90;;;;;;5117860;28;20188;-69
2021/06/09 00:10:31;;;;;;;10.50;8.27;;;19.00;99.90;;;;;;5117186;28;20202;-68
2021/06/09 00:12:57;;;;;;;8.73;7.93;;;19.00;99.90;;;;;;5117638;27;20567;-68
2021/06/09 00:15:22;;;;;;;9.43;8.63;;;18.90;99.90;;;;;;5117134;28;20430;-68
2021/06/09 00:17:48;;;;;;;9.00;8.10;;;18.90;99.90;;;;;;5117217;28;20763;-68
2021/06/09 00:20:19;;;;;;;8.67;7.87;;;19.10;99.90;;;;;;5117126;27;20195;-68
2021/06/09 00:22:44;;;;;;;9.50;8.47;;;19.00;99.90;;;;;;5117520;27;20574;-67
2021/06/09 00:25:17;;;;;;;9.70;8.87;;;18.90;99.90;;;;;;5115650;28;21011;-69
2021/06/09 00:27:45;;;;;;;9.30;8.43;;;18.90;99.90;;;;;;5117578;28;20182;-68
2021/06/09 00:30:13;;;;;;;8.70;7.90;;;19.20;99.90;;;;;;5115550;28;20973;-68
2021/06/09 00:32:39;;;;;;;9.33;8.53;;;19.20;99.90;;;;;;5115602;28;20939;-68
2021/06/09 00:35:06;;;;;;;10.30;8.80;;;19.30;99.90;;;;;;5116769;28;20403;-68
2021/06/09 00:37:31;;;;;;;10.17;8.10;;;19.30;99.90;;;;;;5117157;28;20266;-68
2021/06/09 00:39:57;;;;;;;9.87;8.87;;;19.30;99.90;;;;;;5116690;28;20979;-68
2021/06/09 00:42:23;;;;;;;8.90;8.10;;;19.30;99.90;;;;;;5116919;28;20252;-68
2021/06/09 00:44:49;;;;;;;9.63;8.60;;;19.20;99.90;;;;;;5116533;28;20221;-69
2021/06/09 00:47:22;;;;;;;8.80;7.80;;;19.20;99.90;;;;;;5115454;28;20189;-68
2021/06/09 00:49:49;;;;;;;9.20;8.40;;;19.00;99.90;;;;;;5116640;28;20387;-68
2021/06/09 00:52:15;;;;;;;13.70;8.80;;;18.90;99.90;;;;;;5116761;28;20437;-68
2021/06/09 00:54:41;;;;;;;9.83;8.87;;;18.90;99.90;;;;;;5116494;28;20763;-69
2021/06/09 00:57:08;;;;;;;9.20;8.30;;;18.90;99.90;;;;;;5116568;28;20192;-68
2021/06/09 00:59:35;;;;;;;9.63;8.70;;;18.80;99.90;;;;;;5116355;28;20409;-68
2021/06/09 01:02:01;;;;;;;9.37;8.40;;;18.80;99.90;;;;;;5116203;28;20830;-68
2021/06/09 01:04:27;;;;;;;10.10;9.10;;;18.70;99.90;;;;;;5116206;28;20395;-68
2021/06/09 01:06:53;;;;;;;10.80;9.90;;;18.70;99.90;;;;;;5116349;28;20216;-68
2021/06/09 01:09:18;;;;;;;9.80;8.90;;;18.70;99.90;;;;;;5116186;28;20198;-69
2021/06/09 01:11:45;;;;;;;9.83;8.93;;;18.70;99.90;;;;;;5116278;28;20253;-68
2021/06/09 01:14:11;;;;;;;11.20;9.50;;;18.60;99.90;;;;;;5115121;28;20625;-68
2021/06/09 01:16:37;;;;;;;10.37;9.40;;;18.60;99.90;;;;;;5116106;27;20487;-68
2021/06/09 01:19:02;;;;;;;9.33;8.33;;;18.60;99.90;;;;;;5114755;28;20235;-68
2021/06/09 01:21:33;;;;;;;10.70;9.37;;;18.60;99.90;;;;;;5114443;28;20270;-68
2021/06/09 01:24:01;;;;;;;10.40;9.27;;;18.50;99.90;;;;;;5114561;28;20181;-68
2021/06/09 01:26:27;;;;;;;10.83;9.50;;;18.60;99.90;;;;;;5115858;28;20565;-69
2021/06/09 01:28:54;;;;;;;10.03;9.13;;;18.60;99.90;;;;;;5114407;28;20768;-69
2021/06/09 01:31:21;;;;;;;10.53;9.43;;;18.60;99.90;;;;;;5115802;28;20934;-67
2021/06/09 01:33:46;;;;;;;11.13;10.03;;;18.50;99.90;;;;;;5115633;28;20437;-68
2021/06/09 01:36:12;;;;;;;10.97;9.70;;;18.50;99.90;;;;;;5115657;28;20440;-68
2021/06/09 01:38:38;;;;;;;11.40;9.60;;;18.50;99.90;;;;;;5115637;28;20189;-69
2021/06/09 01:41:04;;;;;;;10.53;9.57;;;18.50;99.90;;;;;;5115433;28;20821;-68
2021/06/09 01:43:30;;;;;;;12.23;9.60;;;18.40;99.90;;;;;;5115535;28;20164;-68
2021/06/09 01:45:57;;;;;;;12.20;10.03;;;18.50;99.90;;;;;;5115381;28;20531;-68
2021/06/09 01:48:22;;;;;;;12.27;9.43;;;18.50;99.90;;;;;;5115450;28;20608;-68
2021/06/09 01:50:48;;;;;;;10.63;9.23;;;18.40;99.90;;;;;;5113890;28;20511;-68
2021/06/09 01:53:14;;;;;;;10.20;9.10;;;18.40;99.90;;;;;;5115262;28;20574;-68
2021/06/09 01:55:40;;;;;;;11.53;9.17;;;18.30;99.90;;;;;;5113955;28;20246;-68
2021/06/09 01:58:12;;;;;;;10.17;9.27;;;18.40;99.90;;;;;;5115693;28;20511;-69
2021/06/09 02:00:43;;;;;;;12.40;9.97;;;18.50;99.90;;;;;;5115135;28;20200;-68
2021/06/09 02:03:11;;;;;;;11.40;10.30;;;18.40;99.90;;;;;;5115681;28;20453;-69
2021/06/09 02:05:37;;;;;;;10.30;9.30;;;18.30;99.90;;;;;;5114997;28;20786;-68
2021/06/09 02:08:08;;;;;;;11.53;10.43;;;18.30;99.90;;;;;;5115520;28;20423;-68
2021/06/09 02:10:35;;;;;;;10.70;9.60;;;18.30;99.90;;;;;;5114914;27;20420;-68
2021/06/09 02:13:10;;;;;;;10.87;9.87;;;18.20;99.90;;;;;;5115474;28;20449;-68
2021/06/09 02:15:36;;;;;;;10.90;9.50;;;18.20;99.90;;;;;;5114841;28;20411;-68
2021/06/09 02:18:10;;;;;;;10.53;9.63;;;18.20;99.90;;;;;;5114787;28;20505;-68
2021/06/09 02:20:47;;;;;;;10.97;9.80;;;18.20;99.90;;;;;;5114703;28;20200;-68
2021/06/09 02:23:16;;;;;;;10.83;9.83;;;18.20;99.90;;;;;;5113449;28;20424;-68
2021/06/09 02:25:44;;;;;;;12.90;11.70;;;18.20;99.90;;;;;;5114434;28;20516;-68
2021/06/09 02:28:10;;;;;;;11.07;9.97;;;18.20;99.90;;;;;;5114745;28;20400;-69
2021/06/09 02:30:36;;;;;;;10.17;9.30;;;18.20;99.90;;;;;;5114542;28;21049;-67
2021/06/09 02:33:03;;;;;;;11.00;9.47;;;18.20;99.90;;;;;;5115108;28;20421;-68
2021/06/09 02:35:29;;;;;;;11.40;10.27;;;18.10;99.90;;;;;;5114503;28;20209;-68
2021/06/09 02:37:55;;;;;;;10.17;9.17;;;18.20;99.90;;;;;;5114910;28;20412;-68
2021/06/09 02:40:22;;;;;;;10.97;10.07;;;18.30;99.90;;;;;;5114296;28;20258;-68
2021/06/09 02:42:49;;;;;;;10.43;9.43;;;18.20;99.90;;;;;;5113411;28;20946;-68
2021/06/09 02:45:17;;;;;;;11.33;9.33;;;18.20;99.90;;;;;;5114490;28;20424;-68
2021/06/09 02:47:53;;;;;;;10.83;9.80;;;18.20;99.90;;;;;;5113178;28;20428;-67
2021/06/09 02:50:20;;;;;;;14.70;10.97;;;17.90;99.90;;;;;;5113046;28;20445;-68
2021/06/09 02:52:53;;;;;;;11.23;10.20;;;17.70;99.90;;;;;;5113135;28;20422;-68
2021/06/09 02:55:31;;;;;;;11.97;10.73;;;17.60;99.90;;;;;;5114137;28;20448;-69
2021/06/09 02:58:23;;;;;;;10.67;9.67;;;17.70;99.90;;;;;;5114795;28;20421;-68
2021/06/09 03:01:10;;;;;;;11.17;10.07;;;18.00;99.90;;;;;;5114158;28;20894;-69
2021/06/09 03:03:47;;;;;;;11.17;9.67;;;17.70;99.90;;;;;;5113223;28;20458;-68
2021/06/09 03:06:29;;;;;;;10.33;9.33;;;17.70;99.90;;;;;;5114273;28;20929;-68
2021/06/09 03:09:15;;;;;;;11.17;10.07;;;17.80;99.90;;;;;;5114182;28;20397;-69
2021/06/09 03:11:56;;;;;;;11.57;10.37;;;17.90;99.90;;;;;;5112953;28;20549;-68
2021/06/09 03:17:31;;;;;;;11.37;10.17;;;18.00;99.90;;;;;;5114070;28;20460;-68
2021/06/09 03:20:28;;;;;;;10.90;9.87;;;17.90;99.90;;;;;;5113977;28;20398;-68
2021/06/09 03:23:11;;;;;;;11.60;10.40;;;17.80;99.90;;;;;;5096747;28;20455;-68
2021/06/09 03:25:44;;;;;;;12.40;10.60;;;17.90;99.90;;;;;;5114059;28;20424;-68
2021/06/09 03:28:19;;;;;;;11.70;9.87;;;17.90;99.90;;;;;;5114481;28;20922;-68
2021/06/09 03:30:51;;;;;;;15.57;10.63;;;18.00;99.90;;;;;;5112643;28;20818;-68
2021/06/09 03:33:18;;;;;;;11.73;10.63;;;18.00;99.90;;;;;;5114109;28;20418;-69
2021/06/09 03:36:04;;;;;;;11.70;10.47;;;18.20;99.90;;;;;;5113794;28;20441;-68
2021/06/09 03:38:38;;;;;;;12.20;10.30;;;18.10;99.90;;;;;;5116896;28;20411;-68
2021/06/09 03:41:09;;;;;;;12.17;11.07;;;18.10;99.90;;;;;;5117769;28;20462;-68
2021/06/09 03:43:38;;;;;;;10.60;9.60;;;18.10;99.90;;;;;;5116583;28;20403;-69
2021/06/09 03:46:07;;;;;;;11.27;9.93;;;18.00;99.90;;;;;;5116385;28;20436;-68
2021/06/09 03:48:38;;;;;;;11.83;10.60;;;17.90;99.90;;;;;;5117774;28;20761;-68
2021/06/09 03:51:05;;;;;;;12.00;10.80;;;17.90;99.90;;;;;;5115295;28;20988;-68
2021/06/09 03:53:33;;;;;;;10.67;9.63;;;18.00;99.90;;;;;;5116698;28;20412;-68
2021/06/09 03:56:02;;;;;;;12.33;10.17;;;17.90;99.90;;;;;;5117372;28;20436;-68
2021/06/09 03:58:28;;;;;;;11.23;10.17;;;17.90;99.90;;;;;;5117523;28;20428;-68
2021/06/09 04:00:55;;;;;;;11.37;10.33;;;18.00;99.90;;;;;;5117240;28;20903;-68
2021/06/09 04:03:22;;;;;;;11.13;9.97;;;18.10;99.90;;;;;;5117447;28;20392;-68
2021/06/09 04:05:49;;;;;;;13.80;10.67;;;18.10;99.90;;;;;;5117120;28;20444;-69
2021/06/09 04:08:16;;;;;;;10.13;9.13;;;18.10;99.90;;;;;;5117416;28;20805;-68
2021/06/09 04:10:44;;;;;;;11.30;10.20;;;18.20;99.90;;;;;;5117105;28;20435;-68
2021/06/09 04:13:10;;;;;;;10.67;9.63;;;18.20;99.90;;;;;;5115974;28;20416;-68
2021/06/09 04:15:38;;;;;;;12.20;10.00;;;18.30;99.90;;;;;;5117258;28;20482;-68
2021/06/09 04:18:06;;;;;;;11.10;10.00;;;18.50;99.90;;;;;;5117183;28;20894;-68
2021/06/09 04:20:33;;;;;;;10.77;9.87;;;18.50;99.90;;;;;;5116986;28;20441;-68
2021/06/09 04:22:59;;;;;;;13.87;10.97;;;18.60;99.90;;;;;;5117639;28;20768;-68
2021/06/09 04:25:25;;;;;;;10.37;9.47;;;18.80;99.90;;;;;;5116959;28;20425;-68
2021/06/09 04:27:51;;;;;;;10.33;9.17;;;18.90;99.90;;;;;;5115598;28;20562;-68
2021/06/09 04:30:19;;;;;;;11.30;10.30;;;19.00;99.90;;;;;;5116896;28;20456;-68
2021/06/09 04:32:52;;;;;;;11.00;10.00;;;19.20;99.90;;;;;;5117171;28;20418;-68
2021/06/09 04:35:19;;;;;;;11.13;10.03;;;19.10;99.90;;;;;;5115845;28;20613;-68
2021/06/09 04:37:45;;;;;;;11.27;9.90;;;19.20;99.90;;;;;;5116686;28;20539;-68
2021/06/09 04:40:16;;;;;;;11.23;10.13;;;19.40;99.90;;;;;;5115374;28;20426;-68
2021/06/09 04:42:43;;;;;;;11.30;10.20;;;19.40;99.90;;;;;;5115601;28;20200;-68
2021/06/09 04:45:10;;;;;;;13.30;10.43;;;19.50;99.90;;;;;;5115246;28;20525;-68
2021/06/09 04:47:36;;;;;;;11.17;9.97;;;19.60;99.90;;;;;;5115540;28;20495;-68
2021/06/09 04:50:04;;;;;;;10.03;9.13;;;19.80;99.90;;;;;;5110346;28;20408;-68
2021/06/09 04:52:29;;;;;;;11.43;10.43;;;19.90;99.90;;;;;;5105197;28;20429;-68
2021/06/09 04:54:55;;;;;;;10.83;9.37;;;20.00;99.90;;;;;;5115966;28;20414;-68
2021/06/09 04:57:20;;;;;;;10.33;9.33;;;20.00;99.90;;;;;;5114681;28;20270;-69
2021/06/09 04:59:46;;;;;;;12.17;10.10;;;20.20;99.90;;;;;;5116122;28;20189;-69
2021/06/09 05:02:12;;;;;;;10.60;9.10;;;20.30;99.90;;;;;;5112485;28;20226;-67
2021/06/09 05:04:37;;;;;;;11.20;9.70;;;20.40;99.90;;;;;;5113290;28;20190;-69
2021/06/09 05:07:03;;;;;;;10.60;9.60;;;20.50;99.90;;;;;;5114245;28;20241;-68
2021/06/09 05:09:29;;;;;;;10.43;8.93;;;20.70;99.90;;;;;;5111765;28;20543;-69
2021/06/09 05:12:01;;;;;;;13.23;10.80;;;20.80;99.90;;;;;;5112675;28;20568;-68
2021/06/09 05:14:30;;;;;;;10.80;9.63;;;21.00;99.90;;;;;;5113992;28;20408;-69
2021/06/09 05:16:58;;;;;;;11.20;9.50;;;21.00;99.90;;;;;;5114855;28;20494;-69
2021/06/09 05:19:27;;;;;;;9.90;9.00;;;21.20;99.90;;;;;;5116070;28;20474;-68
2021/06/09 05:22:00;;;;;;;10.40;9.40;;;21.20;99.90;;;;;;5114217;28;20538;-68
2021/06/09 05:24:28;;;;;;;11.13;9.10;;;21.30;99.90;;;;;;5114817;28;20407;-69
2021/06/09 05:26:54;;;;;;;12.40;10.37;;;21.40;99.90;;;;;;5115205;28;20541;-69
2021/06/09 05:29:21;;;;;;;13.00;10.00;;;21.60;99.90;;;;;;5114868;28;20423;-68
2021/06/09 05:31:50;;;;;;;12.43;9.57;;;21.70;99.90;;;;;;5112328;27;20949;-68
2021/06/09 05:34:18;;;;;;;11.03;9.80;;;21.80;99.90;;;;;;5111496;28;20408;-68
2021/06/09 05:36:44;;;;;;;9.90;8.87;;;21.90;99.90;;;;;;5113273;28;20490;-68
2021/06/09 05:39:10;;;;;;;10.83;9.73;;;22.10;99.90;;;;;;5115343;28;20913;-69
2021/06/09 05:41:36;;;;;;;11.43;9.33;;;22.30;99.90;;;;;;5111345;27;20519;-68
2021/06/09 05:44:01;;;;;;;9.60;8.60;;;22.40;99.90;;;;;;5111039;28;20569;-69
2021/06/09 05:46:28;;;;;;;9.37;8.57;;;22.60;99.90;;;;;;5106133;27;20199;-69
2021/06/09 05:48:54;;;;;;;10.50;9.50;;;22.90;99.90;;;;;;5103151;28;20271;-68
2021/06/09 05:51:22;;;;;;;11.07;9.40;;;23.20;99.90;;;;;;5109127;28;20535;-68
2021/06/09 05:53:55;;;;;;;9.83;8.93;;;23.40;99.90;;;;;;5113881;28;20408;-68
2021/06/09 05:56:21;;;;;;;9.83;8.93;;;23.50;99.90;;;;;;5111816;27;20853;-68
2021/06/09 05:58:46;;;;;;;9.77;8.83;;;23.70;99.90;;;;;;5112044;28;20407;-68
2021/06/09 06:01:12;;;;;;;10.10;9.30;;;23.90;99.90;;;;;;5113285;28;20311;-68
2021/06/09 06:03:44;;;;;;;10.87;9.97;;;23.90;99.90;;;;;;5113087;28;20224;-69
2021/06/09 06:06:12;;;;;;;10.87;9.70;;;24.20;99.90;;;;;;5111817;28;20203;-68
2021/06/09 06:08:40;;;;;;;9.90;8.90;;;24.20;99.90;;;;;;5119273;27;20428;-69
2021/06/09 06:11:11;;;;;;;9.00;8.30;;;24.20;99.90;;;;;;5111958;28;20444;-68
2021/06/09 06:13:38;;;;;;;9.63;8.80;;;24.10;99.90;;;;;;5111676;28;20440;-69
2021/06/09 06:16:05;;;;;;;9.67;8.77;;;24.60;99.90;;;;;;5106093;28;20440;-68
2021/06/09 06:18:31;;;;;;;10.10;8.80;;;24.50;99.90;;;;;;5112420;28;20536;-68
2021/06/09 06:20:57;;;;;;;11.40;9.73;;;24.30;99.90;;;;;;5114092;28;20521;-68
2021/06/09 06:23:26;;;;;;;9.40;8.60;;;24.50;99.90;;;;;;5112725;28;20424;-69
2021/06/09 06:25:52;;;;;;;10.03;9.23;;;24.80;99.90;;;;;;5113142;28;20436;-68
2021/06/09 06:28:18;;;;;;;9.40;8.60;;;24.90;99.90;;;;;;5109898;28;20423;-68
2021/06/09 06:30:44;;;;;;;12.00;8.67;;;25.00;99.90;;;;;;5108303;28;20790;-67
2021/06/09 06:33:10;;;;;;;9.27;8.47;;;25.10;99.90;;;;;;5096659;27;21003;-69
2021/06/09 06:35:37;;;;;;;8.97;8.13;;;25.30;99.90;;;;;;5103766;28;20260;-69
2021/06/09 06:38:03;;;;;;;11.07;10.10;;;25.30;99.90;;;;;;5104953;28;20443;-68
2021/06/09 06:40:31;;;;;;;10.97;9.17;;;25.40;99.90;;;;;;5104588;28;20520;-67
2021/06/09 06:42:57;;;;;;;10.40;9.23;;;25.40;99.90;;;;;;5104855;28;20719;-67
2021/06/09 06:45:23;;;;;;;10.00;9.03;;;25.50;99.90;;;;;;5105742;28;20537;-68
2021/06/09 06:47:51;;;;;;;9.70;8.83;;;25.40;99.90;;;;;;5102026;28;20445;-68
2021/06/09 06:50:20;;;;;;;8.43;7.73;;;25.60;99.90;;;;;;5104733;28;20451;-68
2021/06/09 06:52:46;;;;;;;9.60;8.70;;;25.50;99.90;;;;;;5105099;28;20438;-68
2021/06/09 06:55:12;;;;;;;9.63;8.70;;;25.60;99.90;;;;;;5104336;28;20442;-68
2021/06/09 06:57:39;;;;;;;10.23;8.90;;;25.80;99.90;;;;;;5100113;28;21805;-70
2021/06/09 07:00:13;;;;;;;9.30;8.50;;;26.10;99.90;;;;;;5100116;28;20438;-68
2021/06/09 07:02:40;;;;;;;9.40;8.50;;;25.90;99.90;;;;;;5101934;28;20844;-67
2021/06/09 07:05:08;;;;;;;9.80;8.90;;;26.20;99.90;;;;;;5105576;28;20422;-68
2021/06/09 07:07:34;;;;;;;9.77;8.83;;;26.10;99.90;;;;;;5103485;28;20441;-68
2021/06/09 07:10:08;;;;;;;9.50;8.50;;;26.10;99.90;;;;;;5102972;28;20419;-68
2021/06/09 07:12:40;;;;;;;8.23;7.53;;;26.20;99.90;;;;;;5107403;28;20438;-68
2021/06/09 07:15:12;;;;;;;8.70;7.90;;;26.00;99.90;;;;;;5105207;28;20431;-69
2021/06/09 07:17:44;;;;;;;9.43;8.60;;;26.20;99.90;;;;;;5110042;28;20566;-68
2021/06/09 07:20:12;;;;;;;8.40;7.60;;;26.40;99.90;;;;;;5115362;28;20524;-68
2021/06/09 07:22:39;;;;;;;7.33;6.77;;;26.60;99.90;;;;;;5109545;27;20483;-68
2021/06/09 07:25:07;;;;;;;8.43;7.70;;;26.80;99.90;;;;;;5112440;28;20437;-68
2021/06/09 07:27:42;;;;;;;10.10;9.10;;;26.70;99.90;;;;;;5113432;27;20431;-68
2021/06/09 07:30:09;;;;;;;8.30;7.70;;;26.80;99.90;;;;;;5105444;28;20454;-68
2021/06/09 07:32:38;;;;;;;9.17;8.27;;;27.20;99.90;;;;;;5112696;28;20433;-68
2021/06/09 07:35:05;;;;;;;11.00;9.00;;;27.20;99.90;;;;;;5114465;28;20434;-68
2021/06/09 07:37:33;;;;;;;9.10;8.20;;;27.30;99.30;;;;;;5112657;28;20431;-69
2021/06/09 07:40:02;;;;;;;8.53;7.83;;;27.30;99.50;;;;;;5112040;28;20450;-68
2021/06/09 07:42:29;;;;;;;9.87;8.70;;;27.30;99.20;;;;;;5113450;28;20479;-69
2021/06/09 07:45:05;;;;;;;9.00;8.20;;;27.50;98.90;;;;;;5114466;27;20420;-68
2021/06/09 07:47:32;;;;;;;9.17;8.23;;;27.70;98.40;;;;;;5115332;27;20960;-69
2021/06/09 07:49:59;;;;;;;8.40;7.70;;;27.60;98.30;;;;;;5117941;27;20928;-68
2021/06/09 07:52:26;;;;;;;8.27;7.67;;;27.80;97.90;;;;;;5114530;28;20518;-69
2021/06/09 07:54:54;;;;;;;8.93;8.20;;;27.60;98.60;;;;;;5116449;28;20461;-68
2021/06/09 07:57:21;;;;;;;10.10;7.80;;;27.70;98.40;;;;;;5116709;27;20997;-69
2021/06/09 07:59:49;;;;;;;8.90;8.20;;;27.70;98.10;;;;;;5110030;28;20445;-70
2021/06/09 08:02:20;;;;;;;9.20;8.30;;;28.00;97.40;;;;;;5114883;27;20532;-69
2021/06/09 08:04:46;;;;;;;8.20;7.60;;;28.20;96.90;;;;;;5114409;28;20435;-68
2021/06/09 08:07:13;;;;;;;9.27;8.23;;;28.20;97.00;;;;;;5116815;28;20512;-68
2021/06/09 08:09:38;;;;;;;8.73;8.03;;;28.20;96.50;;;;;;5113170;27;20411;-68
2021/06/09 08:12:06;;;;;;;8.63;7.93;;;28.10;96.70;;;;;;5111560;27;20452;-69
2021/06/09 08:14:33;;;;;;;8.73;7.93;;;28.10;96.80;;;;;;5109488;27;20540;-69
2021/06/09 08:17:00;;;;;;;9.30;7.80;;;28.30;96.30;;;;;;5125936;27;20465;-69
2021/06/09 08:19:26;;;;;;;8.10;7.30;;;28.30;96.10;;;;;;5123694;27;20475;-68
2021/06/09 08:21:51;;;;;;;8.27;7.43;;;28.20;95.90;;;;;;5113734;27;20487;-68
2021/06/09 08:24:17;;;;;;;8.80;8.20;;;28.40;95.60;;;;;;5115517;27;20211;-68
2021/06/09 08:26:42;;;;;;;11.60;8.33;;;28.40;95.20;;;;;;5114593;27;20203;-68
2021/06/09 08:29:09;;;;;;;8.73;7.90;;;28.40;95.10;;;;;;5114045;28;20182;-70
2021/06/09 08:31:37;;;;;;;9.57;8.57;;;28.50;94.80;;;;;;5110492;27;20196;-69
2021/06/09 08:34:03;;;;;;;16.90;8.27;;;28.60;94.70;;;;;;5110735;28;20416;-69
2021/06/09 08:36:30;;;;;;;8.00;7.30;;;28.70;94.40;;;;;;5110896;27;20470;-69
2021/06/09 08:38:57;;;;;;;10.00;7.30;;;28.80;93.40;;;;;;5110071;27;20825;-68
2021/06/09 08:41:32;;;;;;;7.23;6.63;;;28.80;93.90;;;;;;5116840;27;20486;-68
2021/06/09 08:43:59;;;;;;;8.70;8.00;;;28.70;94.00;;;;;;5128786;27;20455;-69
2021/06/09 08:46:25;;;;;;;8.90;8.20;;;28.70;94.10;;;;;;5111141;27;21062;-68
2021/06/09 08:48:55;;;;;;;8.23;7.50;;;28.90;93.90;;;;;;5113283;27;20408;-70
2021/06/09 08:51:21;;;;;;;8.60;7.90;;;28.90;93.80;;;;;;5103988;28;20818;-68
2021/06/09 08:53:52;;;;;;;8.80;7.90;;;28.50;94.10;;;;;;5105900;28;20400;-69
2021/06/09 08:56:21;;;;;;;8.50;7.60;;;28.50;94.00;;;;;;5109373;27;20451;-69
2021/06/09 08:58:47;;;;;;;12.03;8.47;;;28.50;94.30;;;;;;5114846;27;20471;-69
2021/06/09 09:01:14;;;;;;;10.57;7.80;;;28.60;93.90;;;;;;5110077;27;20969;-69
2021/06/09 09:03:46;;;;;;;8.50;7.70;;;28.70;93.80;;;;;;5123326;27;20980;-68
2021/06/09 09:06:12;;;;;;;8.30;7.70;;;28.50;93.80;;;;;;5113252;27;20450;-69
2021/06/09 09:08:37;;;;;;;9.47;8.37;;;28.50;93.90;;;;;;5112505;27;20489;-69
2021/06/09 09:11:03;;;;;;;8.30;7.60;;;28.60;93.60;;;;;;5112377;27;21003;-68
2021/06/09 09:13:31;;;;;;;8.97;8.27;;;28.40;93.80;;;;;;5108383;27;20561;-68
2021/06/09 09:15:57;;;;;;;9.27;8.57;;;28.20;94.50;;;;;;5104657;27;20196;-68
2021/06/09 09:18:42;;;;;;;9.20;8.40;;;28.40;94.10;;;;;;5109674;27;20792;-68
2021/06/09 09:21:09;;;;;;;9.40;8.60;;;28.40;94.00;;;;;;5104779;28;20219;-68
2021/06/09 09:23:35;;;;;;;9.97;9.17;;;28.60;93.50;;;;;;5112049;27;20442;-68
2021/06/09 09:26:22;;;;;;;9.93;8.10;;;28.30;93.90;;;;;;5112927;27;20479;-68
2021/06/09 09:28:48;;;;;;;9.50;8.50;;;28.40;94.10;;;;;;5116974;27;20448;-68
2021/06/09 09:31:17;;;;;;;8.70;7.90;;;28.10;94.50;;;;;;5128605;27;20482;-68
2021/06/09 09:33:43;;;;;;;9.23;8.33;;;28.40;94.00;;;;;;5116763;27;20643;-68
2021/06/09 09:36:35;;;;;;;8.03;7.43;;;28.50;94.00;;;;;;5119313;27;20960;-69
2021/06/09 09:39:01;;;;;;;10.03;8.77;;;28.60;93.30;;;;;;5115472;27;20427;-68
2021/06/09 09:41:32;;;;;;;8.20;7.50;;;28.50;93.90;;;;;;5129776;27;20482;-68
2021/06/09 09:44:06;;;;;;;9.00;8.20;;;28.40;94.40;;;;;;5128483;27;20697;-68
2021/06/09 09:46:35;;;;;;;11.60;8.60;;;28.40;94.40;;;;;;5121639;27;20457;-69
2021/06/09 09:49:06;;;;;;;9.87;8.30;;;28.30;94.30;;;;;;5123499;27;20452;-69
2021/06/09 09:52:00;;;;;;;9.33;8.50;;;28.20;94.70;;;;;;5121016;27;20870;-68
2021/06/09 09:54:31;;;;;;;12.00;8.70;;;28.10;95.40;;;;;;5097744;27;20967;-68
2021/06/09 09:56:59;;;;;;;8.70;8.00;;;27.70;95.90;;;;;;5106698;27;20456;-67
2021/06/09 09:59:29;;;;;;;8.57;7.87;;;27.60;96.10;;;;;;5107657;27;20412;-68
2021/06/09 10:01:56;;;;;;;9.20;8.50;;;27.60;96.10;;;;;;5103907;28;20808;-68
2021/06/09 10:04:30;;;;;;;11.20;8.77;;;27.60;95.90;;;;;;5126913;27;20431;-68
2021/06/09 10:06:57;;;;;;;9.73;8.63;;;27.70;96.00;;;;;;5108776;28;20467;-68
2021/06/09 10:09:29;;;;;;;8.33;7.63;;;28.10;95.20;;;;;;5108689;28;20955;-69
2021/06/09 10:11:57;;;;;;;10.33;9.03;;;28.20;95.50;;;;;;5108607;28;20482;-67
2021/06/09 10:14:27;;;;;;;9.33;8.57;;;28.20;95.30;;;;;;5108046;27;20569;-68
2021/06/09 10:17:14;;;;;;;8.00;7.33;;;28.60;94.50;;;;;;5108194;28;20831;-67
2021/06/09 10:19:41;;;;;;;9.27;8.47;;;28.50;93.40;;;;;;5102167;28;20596;-68
2021/06/09 10:22:12;;;;;;;8.43;7.63;;;28.80;93.70;;;;;;5108418;28;20479;-68
2021/06/09 10:24:57;;;;;;;10.10;7.77;;;28.80;91.70;;;;;;5107813;28;20862;-68
2021/06/09 10:27:33;;;;;;;9.30;8.40;;;28.20;92.00;;;;;;5107794;28;20813;-68
2021/06/09 10:29:59;;;;;;;9.57;7.83;;;28.30;93.00;;;;;;5120602;27;20792;-67
2021/06/09 10:32:26;;;;;;;7.70;7.00;;;28.70;92.80;;;;;;5110041;28;20733;-68
2021/06/09 10:34:52;;;;;;;7.90;7.20;;;28.80;92.50;;;;;;5109637;28;20172;-68
2021/06/09 10:37:18;;;;;;;8.10;7.33;;;28.70;92.20;;;;;;5110970;28;20428;-68
2021/06/09 10:39:44;;;;;;;8.97;8.27;;;28.50;92.30;;;;;;5109218;28;20461;-69
2021/06/09 10:42:16;;;;;;;8.97;8.20;;;28.90;92.00;;;;;;5108779;28;20586;-68
2021/06/09 10:44:45;;;;;;;8.17;7.47;;;28.80;92.20;;;;;;5110532;27;20171;-68
2021/06/09 10:47:17;;;;;;;11.20;8.10;;;28.90;91.90;;;;;;5106278;27;20459;-68
2021/06/09 10:49:43;;;;;;;7.93;7.23;;;28.70;91.80;;;;;;5108852;27;20436;-69
2021/06/09 10:52:10;;;;;;;7.70;7.00;;;28.70;91.70;;;;;;5108134;28;20456;-68
2021/06/09 10:54:35;;;;;;;7.77;7.07;;;28.90;91.90;;;;;;5112415;27;20469;-68
2021/06/09 10:57:02;;;;;;;8.07;7.47;;;28.80;91.40;;;;;;5114662;27;20948;-68
2021/06/09 10:59:31;;;;;;;7.87;7.10;;;28.80;90.40;;;;;;5111855;27;20587;-69
2021/06/09 11:02:05;;;;;;;7.43;6.83;;;29.20;91.10;;;;;;5108784;27;20898;-68
2021/06/09 11:04:43;;;;;;;7.77;7.17;;;29.20;89.80;;;;;;5118804;27;20427;-69
2021/06/09 11:07:29;;;;;;;7.37;6.77;;;29.30;90.40;;;;;;5116592;27;20812;-69
2021/06/09 11:09:58;;;;;;;7.50;6.90;;;29.60;90.50;;;;;;5116558;28;20519;-68
2021/06/09 11:12:29;;;;;;;8.00;7.20;;;29.60;89.60;;;;;;5109855;28;20500;-68
2021/06/09 11:15:00;;;;;;;8.23;7.43;;;29.80;90.10;;;;;;5118683;28;20532;-68
2021/06/09 11:17:44;;;;;;;7.67;7.07;;;29.70;88.20;;;;;;5116186;28;20458;-68
2021/06/09 11:20:25;;;;;;;8.07;7.20;;;29.70;89.80;;;;;;5119339;28;20516;-69
2021/06/09 11:22:55;;;;;;;8.17;6.73;;;30.00;89.50;;;;;;5102705;28;20527;-68
2021/06/09 11:25:47;;;;;;;8.03;7.30;;;29.90;87.40;;;;;;5122493;28;20531;-67
2021/06/09 11:28:14;;;;;;;7.40;6.87;;;29.30;87.90;;;;;;5107261;27;20437;-67
2021/06/09 11:30:54;;;;;;;7.83;7.23;;;29.70;87.40;;;;;;5112866;28;20441;-67
2021/06/09 11:33:40;;;;;;;8.27;7.43;;;30.00;87.00;;;;;;5109230;28;20523;-68
2021/06/09 11:36:09;;;;;;;8.50;7.70;;;30.10;86.00;;;;;;5106685;28;20451;-69
2021/06/09 11:38:46;;;;;;;7.60;7.00;;;30.30;88.60;;;;;;5107609;28;20903;-68
2021/06/09 11:41:28;;;;;;;7.50;6.80;;;30.30;87.60;;;;;;5109602;28;20522;-67
2021/06/09 11:43:56;;;;;;;8.13;7.30;;;30.40;87.00;;;;;;5119105;28;20470;-68
2021/06/09 11:46:31;;;;;;;8.43;7.73;;;29.30;85.60;;;;;;5111209;28;20473;-67
2021/06/09 11:49:05;;;;;;;7.80;7.10;;;29.20;86.30;;;;;;5119511;28;20475;-67
2021/06/09 11:51:43;;;;;;;7.97;7.27;;;29.20;86.60;;;;;;5117142;28;20492;-68
2021/06/09 11:54:15;;;;;;;9.10;8.30;;;29.20;85.80;;;;;;5107031;28;20787;-69
2021/06/09 11:56:43;;;;;;;8.20;7.40;;;29.70;87.10;;;;;;5120797;28;20468;-69
2021/06/09 11:59:29;;;;;;;8.50;7.80;;;30.10;84.80;;;;;;5116764;27;20785;-68
2021/06/09 12:02:00;;;;;;;8.97;8.07;;;30.10;85.40;;;;;;5122533;27;20982;-67
2021/06/09 12:04:26;;;;;;;9.00;8.20;;;30.30;85.20;;;;;;5114103;27;20579;-68
2021/06/09 12:06:54;;;;;;;8.50;7.80;;;30.40;86.30;;;;;;5118508;27;20453;-68
2021/06/09 12:09:20;;;;;;;8.07;7.47;;;30.70;86.40;;;;;;5121372;27;20460;-68
2021/06/09 12:11:49;;;;;;;8.17;7.20;;;30.90;86.00;;;;;;5119595;27;20463;-68
2021/06/09 12:14:19;;;;;;;8.13;7.53;;;30.70;87.10;;;;;;5117880;27;20423;-67
2021/06/09 12:16:46;;;;;;;7.70;7.10;;;30.90;87.00;;;;;;5123484;27;20458;-67
2021/06/09 12:19:23;;;;;;;7.70;7.10;;;30.90;85.30;;;;;;5110499;27;20996;-68
2021/06/09 12:21:49;;;;;;;7.80;7.20;;;30.80;85.40;;;;;;5113027;27;20627;-68
2021/06/09 12:24:16;;;;;;;8.03;7.33;;;30.90;85.10;;;;;;5115289;27;20517;-69
2021/06/09 12:26:53;;;;;;;8.50;7.77;;;30.80;84.80;;;;;;5121085;27;20421;-68
2021/06/09 12:29:26;;;;;;;10.97;8.07;;;30.70;84.50;;;;;;5121971;27;20673;-69
2021/06/09 12:31:53;;;;;;;8.47;7.67;;;30.40;84.50;;;;;;5115592;27;20446;-68
2021/06/09 12:34:52;;;;;;;8.53;7.80;;;30.50;81.20;;;;;;5133014;27;20873;-69
2021/06/09 12:37:19;;;;;;;8.30;7.50;;;30.60;81.20;;;;;;5092106;27;20430;-68
2021/06/09 12:39:44;;;;;;;7.80;7.20;;;30.30;80.20;;;;;;5129709;27;20471;-68
2021/06/09 12:42:15;;;;;;;7.93;7.33;;;30.70;82.10;;;;;;5115495;27;20534;-69
2021/06/09 12:44:48;;;;;;;8.30;7.70;;;30.70;80.60;;;;;;5118370;27;20181;-68
2021/06/09 12:47:42;;;;;;;8.57;7.93;;;31.00;79.10;;;;;;5122515;27;20931;-68
2021/06/09 12:50:16;;;;;;;8.50;7.33;;;30.60;80.10;;;;;;5122527;27;20478;-67
2021/06/09 12:52:44;;;;;;;8.60;7.33;;;30.50;80.40;;;;;;5117764;27;20443;-67
2021/06/09 12:55:13;;;;;;;7.37;6.70;;;30.50;79.60;;;;;;5120985;27;20458;-69